sensor_id;sensor_type;location;lat;lon;timestamp;P1;durP1;ratioP1;P2;durP2;ratioP2
12194;SDS011;27023;42.680;23.132;2022-09-01T00:00:08;7.30;;;7.20;;
12194;SDS011;27023;42.680;23.132;2022-09-01T00:02:39;9.33;;;9.13;;
12194;SDS011;27023;42.680;23.132;2022-09-01T00:05:07;9.30;;;9.10;;
12194;SDS011;27023;42.680;23.132;2022-09-01T00:07:34;12.57;;;12.17;;
12194;SDS011;27023;42.680;23.132;2022-09-01T00:10:03;10.83;;;10.53;;
12194;SDS011;27023;42.680;23.132;2022-09-01T00:12:32;11.50;;;11.20;;
12194;SDS011;27023;42.680;23.132;2022-09-01T00:14:59;13.47;;;13.07;;
12194;SDS011;27023;42.680;23.132;2022-09-01T00:17:27;11.10;;;10.80;;
12194;SDS011;27023;42.680;23.132;2022-09-01T00:19:55;7.60;;;7.50;;
12194;SDS011;27023;42.680;23.132;2022-09-01T00:22:21;7.30;;;7.20;;
12194;SDS011;27023;42.680;23.132;2022-09-01T00:24:48;12.03;;;11.67;;
12194;SDS011;27023;42.680;23.132;2022-09-01T00:27:15;8.13;;;8.03;;
12194;SDS011;27023;42.680;23.132;2022-09-01T00:29:42;9.43;;;9.23;;
12194;SDS011;27023;42.680;23.132;2022-09-01T00:32:09;9.63;;;9.43;;
12194;SDS011;27023;42.680;23.132;2022-09-01T00:34:37;10.50;;;10.20;;
12194;SDS011;27023;42.680;23.132;2022-09-01T00:37:04;12.60;;;12.20;;
12194;SDS011;27023;42.680;23.132;2022-09-01T00:39:31;11.20;;;10.90;;
12194;SDS011;27023;42.680;23.132;2022-09-01T00:41:57;8.03;;;7.93;;
12194;SDS011;27023;42.680;23.132;2022-09-01T00:44:25;8.60;;;8.40;;
12194;SDS011;27023;42.680;23.132;2022-09-01T00:46:52;13.57;;;13.17;;
12194;SDS011;27023;42.680;23.132;2022-09-01T00:49:22;12.53;;;12.13;;
12194;SDS011;27023;42.680;23.132;2022-09-01T00:51:55;12.20;;;11.83;;
12194;SDS011;27023;42.680;23.132;2022-09-01T00:54:27;11.50;;;11.20;;
12194;SDS011;27023;42.680;23.132;2022-09-01T00:56:58;13.50;;;13.10;;
12194;SDS011;27023;42.680;23.132;2022-09-01T00:59:27;12.87;;;12.47;;
12194;SDS011;27023;42.680;23.132;2022-09-01T01:01:54;12.53;;;12.03;;
12194;SDS011;27023;42.680;23.132;2022-09-01T01:04:22;10.03;;;9.80;;
12194;SDS011;27023;42.680;23.132;2022-09-01T01:06:50;9.87;;;9.67;;
12194;SDS011;27023;42.680;23.132;2022-09-01T01:09:24;11.17;;;10.87;;
12194;SDS011;27023;42.680;23.132;2022-09-01T01:11:53;11.97;;;11.60;;
12194;SDS011;27023;42.680;23.132;2022-09-01T01:14:23;11.23;;;10.93;;
12194;SDS011;27023;42.680;23.132;2022-09-01T01:16:51;10.90;;;10.60;;
12194;SDS011;27023;42.680;23.132;2022-09-01T01:19:20;8.63;;;8.43;;
12194;SDS011;27023;42.680;23.132;2022-09-01T01:22:09;11.30;;;11.00;;
12194;SDS011;27023;42.680;23.132;2022-09-01T01:25:02;9.60;;;9.40;;
12194;SDS011;27023;42.680;23.132;2022-09-01T01:27:30;10.83;;;10.53;;
12194;SDS011;27023;42.680;23.132;2022-09-01T01:29:59;12.70;;;12.20;;
12194;SDS011;27023;42.680;23.132;2022-09-01T01:32:26;10.30;;;10.00;;
12194;SDS011;27023;42.680;23.132;2022-09-01T01:34:53;10.07;;;9.77;;
12194;SDS011;27023;42.680;23.132;2022-09-01T01:37:22;10.03;;;9.83;;
12194;SDS011;27023;42.680;23.132;2022-09-01T01:39:49;11.20;;;10.90;;
12194;SDS011;27023;42.680;23.132;2022-09-01T01:42:17;10.77;;;10.47;;
12194;SDS011;27023;42.680;23.132;2022-09-01T01:44:44;10.23;;;9.93;;
12194;SDS011;27023;42.680;23.132;2022-09-01T01:47:12;10.27;;;10.00;;
12194;SDS011;27023;42.680;23.132;2022-09-01T01:49:40;9.73;;;9.53;;
12194;SDS011;27023;42.680;23.132;2022-09-01T01:52:08;9.17;;;8.97;;
12194;SDS011;27023;42.680;23.132;2022-09-01T01:54:39;9.50;;;9.20;;
12194;SDS011;27023;42.680;23.132;2022-09-01T01:57:06;9.73;;;9.53;;
12194;SDS011;27023;42.680;23.132;2022-09-01T01:59:34;9.67;;;9.47;;
12194;SDS011;27023;42.680;23.132;2022-09-01T02:02:02;9.70;;;9.50;;
12194;SDS011;27023;42.680;23.132;2022-09-01T02:04:33;9.30;;;9.10;;
12194;SDS011;27023;42.680;23.132;2022-09-01T02:07:01;11.80;;;11.50;;
12194;SDS011;27023;42.680;23.132;2022-09-01T02:09:27;9.50;;;9.30;;
12194;SDS011;27023;42.680;23.132;2022-09-01T02:11:54;7.03;;;6.93;;
12194;SDS011;27023;42.680;23.132;2022-09-01T02:14:22;7.70;;;7.60;;
12194;SDS011;27023;42.680;23.132;2022-09-01T02:16:50;9.47;;;9.27;;
12194;SDS011;27023;42.680;23.132;2022-09-01T02:19:20;8.37;;;8.23;;
12194;SDS011;27023;42.680;23.132;2022-09-01T02:21:46;7.30;;;7.20;;
12194;SDS011;27023;42.680;23.132;2022-09-01T02:24:18;5.60;;;5.50;;
12194;SDS011;27023;42.680;23.132;2022-09-01T02:26:45;7.33;;;7.23;;
12194;SDS011;27023;42.680;23.132;2022-09-01T02:29:13;9.53;;;9.20;;
12194;SDS011;27023;42.680;23.132;2022-09-01T02:31:45;8.03;;;7.73;;
12194;SDS011;27023;42.680;23.132;2022-09-01T02:34:15;11.30;;;11.00;;
12194;SDS011;27023;42.680;23.132;2022-09-01T02:36:44;11.00;;;10.70;;
12194;SDS011;27023;42.680;23.132;2022-09-01T02:39:12;8.43;;;8.23;;
12194;SDS011;27023;42.680;23.132;2022-09-01T02:41:40;12.93;;;12.53;;
12194;SDS011;27023;42.680;23.132;2022-09-01T02:44:07;11.27;;;10.97;;
12194;SDS011;27023;42.680;23.132;2022-09-01T02:46:36;12.13;;;11.77;;
12194;SDS011;27023;42.680;23.132;2022-09-01T02:49:06;15.53;;;15.03;;
12194;SDS011;27023;42.680;23.132;2022-09-01T02:51:41;11.93;;;11.53;;
12194;SDS011;27023;42.680;23.132;2022-09-01T02:54:09;12.20;;;11.83;;
12194;SDS011;27023;42.680;23.132;2022-09-01T02:56:41;15.37;;;14.87;;
12194;SDS011;27023;42.680;23.132;2022-09-01T02:59:08;14.10;;;13.60;;
12194;SDS011;27023;42.680;23.132;2022-09-01T03:01:37;9.40;;;9.20;;
12194;SDS011;27023;42.680;23.132;2022-09-01T03:04:04;10.90;;;10.60;;
12194;SDS011;27023;42.680;23.132;2022-09-01T03:06:34;9.90;;;9.70;;
12194;SDS011;27023;42.680;23.132;2022-09-01T03:09:04;11.20;;;10.90;;
12194;SDS011;27023;42.680;23.132;2022-09-01T03:11:34;10.97;;;10.67;;
12194;SDS011;27023;42.680;23.132;2022-09-01T03:14:02;16.53;;;15.93;;
12194;SDS011;27023;42.680;23.132;2022-09-01T03:16:30;16.60;;;16.00;;
12194;SDS011;27023;42.680;23.132;2022-09-01T03:18:57;9.60;;;9.20;;
12194;SDS011;27023;42.680;23.132;2022-09-01T03:21:24;10.63;;;10.33;;
12194;SDS011;27023;42.680;23.132;2022-09-01T03:23:51;9.27;;;9.00;;
12194;SDS011;27023;42.680;23.132;2022-09-01T03:26:20;10.23;;;9.93;;
12194;SDS011;27023;42.680;23.132;2022-09-01T03:28:48;12.50;;;12.10;;
12194;SDS011;27023;42.680;23.132;2022-09-01T03:31:15;9.97;;;9.67;;
12194;SDS011;27023;42.680;23.132;2022-09-01T03:33:43;14.97;;;14.47;;
12194;SDS011;27023;42.680;23.132;2022-09-01T03:36:09;13.00;;;12.60;;
12194;SDS011;27023;42.680;23.132;2022-09-01T03:38:43;18.50;;;17.80;;
12194;SDS011;27023;42.680;23.132;2022-09-01T03:41:13;18.90;;;18.20;;
12194;SDS011;27023;42.680;23.132;2022-09-01T03:43:43;19.07;;;18.37;;
12194;SDS011;27023;42.680;23.132;2022-09-01T03:46:11;10.20;;;9.80;;
12194;SDS011;27023;42.680;23.132;2022-09-01T03:48:44;12.20;;;11.80;;
12194;SDS011;27023;42.680;23.132;2022-09-01T03:51:13;8.73;;;8.53;;
12194;SDS011;27023;42.680;23.132;2022-09-01T03:53:40;9.60;;;9.40;;
12194;SDS011;27023;42.680;23.132;2022-09-01T03:56:08;8.60;;;8.40;;
12194;SDS011;27023;42.680;23.132;2022-09-01T03:58:35;10.00;;;9.80;;
12194;SDS011;27023;42.680;23.132;2022-09-01T04:01:04;13.03;;;12.63;;
12194;SDS011;27023;42.680;23.132;2022-09-01T04:03:31;13.60;;;13.13;;
12194;SDS011;27023;42.680;23.132;2022-09-01T04:06:00;12.33;;;11.93;;
12194;SDS011;27023;42.680;23.132;2022-09-01T04:08:27;12.57;;;12.17;;
12194;SDS011;27023;42.680;23.132;2022-09-01T04:10:56;12.87;;;12.47;;
12194;SDS011;27023;42.680;23.132;2022-09-01T04:13:25;11.40;;;11.10;;
12194;SDS011;27023;42.680;23.132;2022-09-01T04:15:56;12.17;;;11.77;;
12194;SDS011;27023;42.680;23.132;2022-09-01T04:18:25;13.13;;;12.73;;
12194;SDS011;27023;42.680;23.132;2022-09-01T04:20:51;16.20;;;15.60;;
12194;SDS011;27023;42.680;23.132;2022-09-01T04:23:21;14.73;;;14.23;;
12194;SDS011;27023;42.680;23.132;2022-09-01T04:25:52;16.93;;;16.33;;
12194;SDS011;27023;42.680;23.132;2022-09-01T04:28:22;19.37;;;18.60;;
12194;SDS011;27023;42.680;23.132;2022-09-01T04:30:54;22.03;;;21.13;;
12194;SDS011;27023;42.680;23.132;2022-09-01T04:33:24;23.90;;;22.90;;
12194;SDS011;27023;42.680;23.132;2022-09-01T04:36:02;23.77;;;22.77;;
12194;SDS011;27023;42.680;23.132;2022-09-01T04:38:29;19.80;;;19.00;;
12194;SDS011;27023;42.680;23.132;2022-09-01T04:41:01;13.40;;;13.00;;
12194;SDS011;27023;42.680;23.132;2022-09-01T04:43:30;12.57;;;12.17;;
12194;SDS011;27023;42.680;23.132;2022-09-01T04:45:57;14.00;;;13.53;;
12194;SDS011;27023;42.680;23.132;2022-09-01T04:48:25;13.23;;;12.83;;
12194;SDS011;27023;42.680;23.132;2022-09-01T04:50:52;15.23;;;14.73;;
12194;SDS011;27023;42.680;23.132;2022-09-01T04:53:20;17.80;;;17.10;;
12194;SDS011;27023;42.680;23.132;2022-09-01T04:55:49;18.83;;;18.13;;
12194;SDS011;27023;42.680;23.132;2022-09-01T04:58:16;21.33;;;20.47;;
12194;SDS011;27023;42.680;23.132;2022-09-01T05:00:43;22.03;;;21.13;;
12194;SDS011;27023;42.680;23.132;2022-09-01T05:03:13;23.60;;;22.60;;
12194;SDS011;27023;42.680;23.132;2022-09-01T05:05:43;19.90;;;19.10;;
12194;SDS011;27023;42.680;23.132;2022-09-01T05:08:11;12.77;;;12.37;;
12194;SDS011;27023;42.680;23.132;2022-09-01T05:10:41;11.43;;;11.13;;
12194;SDS011;27023;42.680;23.132;2022-09-01T05:13:09;7.67;;;7.47;;
12194;SDS011;27023;42.680;23.132;2022-09-01T05:15:37;20.60;;;19.80;;
12194;SDS011;27023;42.680;23.132;2022-09-01T05:18:10;3.40;;;3.30;;
12194;SDS011;27023;42.680;23.132;2022-09-01T05:20:38;2.43;;;2.43;;
12194;SDS011;27023;42.680;23.132;2022-09-01T05:23:08;3.07;;;3.07;;
12194;SDS011;27023;42.680;23.132;2022-09-01T05:25:38;7.97;;;7.77;;
12194;SDS011;27023;42.680;23.132;2022-09-01T05:28:06;3.87;;;3.53;;
12194;SDS011;27023;42.680;23.132;2022-09-01T05:30:36;4.00;;;3.87;;
12194;SDS011;27023;42.680;23.132;2022-09-01T05:33:04;3.13;;;3.03;;
12194;SDS011;27023;42.680;23.132;2022-09-01T05:35:36;3.90;;;3.80;;
12194;SDS011;27023;42.680;23.132;2022-09-01T05:38:05;3.43;;;3.33;;
12194;SDS011;27023;42.680;23.132;2022-09-01T05:40:37;3.40;;;3.40;;
12194;SDS011;27023;42.680;23.132;2022-09-01T05:43:05;3.60;;;3.60;;
12194;SDS011;27023;42.680;23.132;2022-09-01T05:45:35;3.27;;;3.17;;
12194;SDS011;27023;42.680;23.132;2022-09-01T05:48:03;3.40;;;3.30;;
12194;SDS011;27023;42.680;23.132;2022-09-01T05:50:29;3.00;;;3.00;;
12194;SDS011;27023;42.680;23.132;2022-09-01T05:52:56;2.53;;;2.53;;
12194;SDS011;27023;42.680;23.132;2022-09-01T05:55:24;3.23;;;3.03;;
12194;SDS011;27023;42.680;23.132;2022-09-01T05:57:52;2.97;;;2.80;;
12194;SDS011;27023;42.680;23.132;2022-09-01T06:00:19;3.37;;;3.27;;
12194;SDS011;27023;42.680;23.132;2022-09-01T06:02:46;3.73;;;3.60;;
12194;SDS011;27023;42.680;23.132;2022-09-01T06:05:13;3.55;;;3.33;;
12194;SDS011;27023;42.680;23.132;2022-09-01T06:07:40;5.17;;;4.53;;
12194;SDS011;27023;42.680;23.132;2022-09-01T06:10:08;3.80;;;3.67;;
12194;SDS011;27023;42.680;23.132;2022-09-01T06:12:38;2.63;;;2.63;;
12194;SDS011;27023;42.680;23.132;2022-09-01T06:15:05;4.07;;;3.72;;
12194;SDS011;27023;42.680;23.132;2022-09-01T06:17:39;3.15;;;3.05;;
12194;SDS011;27023;42.680;23.132;2022-09-01T06:20:08;3.08;;;3.08;;
12194;SDS011;27023;42.680;23.132;2022-09-01T06:22:35;3.03;;;2.93;;
12194;SDS011;27023;42.680;23.132;2022-09-01T06:25:03;4.63;;;4.43;;
12194;SDS011;27023;42.680;23.132;2022-09-01T06:27:32;2.40;;;2.40;;
12194;SDS011;27023;42.680;23.132;2022-09-01T06:30:04;3.37;;;3.17;;
12194;SDS011;27023;42.680;23.132;2022-09-01T06:32:39;3.57;;;3.37;;
12194;SDS011;27023;42.680;23.132;2022-09-01T06:35:08;3.17;;;3.07;;
12194;SDS011;27023;42.680;23.132;2022-09-01T06:37:35;3.90;;;3.80;;
12194;SDS011;27023;42.680;23.132;2022-09-01T06:40:03;4.00;;;3.90;;
12194;SDS011;27023;42.680;23.132;2022-09-01T06:42:30;3.93;;;3.80;;
12194;SDS011;27023;42.680;23.132;2022-09-01T06:44:59;4.33;;;4.23;;
12194;SDS011;27023;42.680;23.132;2022-09-01T06:47:27;4.43;;;4.33;;
12194;SDS011;27023;42.680;23.132;2022-09-01T06:49:54;4.50;;;4.30;;
12194;SDS011;27023;42.680;23.132;2022-09-01T06:52:22;3.63;;;3.60;;
12194;SDS011;27023;42.680;23.132;2022-09-01T06:54:49;3.40;;;3.30;;
12194;SDS011;27023;42.680;23.132;2022-09-01T06:57:18;3.90;;;3.80;;
12194;SDS011;27023;42.680;23.132;2022-09-01T06:59:46;4.80;;;4.63;;
12194;SDS011;27023;42.680;23.132;2022-09-01T07:02:14;2.73;;;2.73;;
12194;SDS011;27023;42.680;23.132;2022-09-01T07:04:45;4.43;;;4.23;;
12194;SDS011;27023;42.680;23.132;2022-09-01T07:07:13;4.20;;;4.10;;
12194;SDS011;27023;42.680;23.132;2022-09-01T07:09:39;4.23;;;4.13;;
12194;SDS011;27023;42.680;23.132;2022-09-01T07:12:06;3.27;;;3.27;;
12194;SDS011;27023;42.680;23.132;2022-09-01T07:14:34;4.67;;;4.57;;
12194;SDS011;27023;42.680;23.132;2022-09-01T07:17:01;3.83;;;3.80;;
12194;SDS011;27023;42.680;23.132;2022-09-01T07:19:28;5.17;;;5.07;;
12194;SDS011;27023;42.680;23.132;2022-09-01T07:21:58;4.43;;;4.20;;
12194;SDS011;27023;42.680;23.132;2022-09-01T07:24:25;2.90;;;2.90;;
12194;SDS011;27023;42.680;23.132;2022-09-01T07:26:52;4.32;;;4.22;;
12194;SDS011;27023;42.680;23.132;2022-09-01T07:29:19;4.22;;;4.13;;
12194;SDS011;27023;42.680;23.132;2022-09-01T07:31:50;4.80;;;4.50;;
12194;SDS011;27023;42.680;23.132;2022-09-01T07:34:20;4.65;;;4.13;;
12194;SDS011;27023;42.680;23.132;2022-09-01T07:36:48;4.18;;;4.07;;
12194;SDS011;27023;42.680;23.132;2022-09-01T07:39:16;3.60;;;3.50;;
12194;SDS011;27023;42.680;23.132;2022-09-01T07:41:42;3.83;;;3.72;;
12194;SDS011;27023;42.680;23.132;2022-09-01T07:44:10;3.90;;;3.70;;
12194;SDS011;27023;42.680;23.132;2022-09-01T07:46:37;3.35;;;3.28;;
12194;SDS011;27023;42.680;23.132;2022-09-01T07:49:05;3.45;;;3.35;;
12194;SDS011;27023;42.680;23.132;2022-09-01T07:51:32;3.38;;;3.28;;
12194;SDS011;27023;42.680;23.132;2022-09-01T07:54:00;9.23;;;5.07;;
12194;SDS011;27023;42.680;23.132;2022-09-01T07:56:28;3.47;;;3.38;;
12194;SDS011;27023;42.680;23.132;2022-09-01T07:58:56;2.78;;;2.75;;
12194;SDS011;27023;42.680;23.132;2022-09-01T08:01:24;3.95;;;3.75;;
12194;SDS011;27023;42.680;23.132;2022-09-01T08:03:53;3.80;;;3.70;;
12194;SDS011;27023;42.680;23.132;2022-09-01T08:06:21;6.00;;;5.28;;
12194;SDS011;27023;42.680;23.132;2022-09-01T08:08:51;3.60;;;3.30;;
12194;SDS011;27023;42.680;23.132;2022-09-01T08:11:20;3.00;;;2.90;;
12194;SDS011;27023;42.680;23.132;2022-09-01T08:13:50;2.70;;;2.60;;
12194;SDS011;27023;42.680;23.132;2022-09-01T08:16:18;3.55;;;3.38;;
12194;SDS011;27023;42.680;23.132;2022-09-01T08:18:46;2.60;;;2.50;;
12194;SDS011;27023;42.680;23.132;2022-09-01T08:21:13;3.20;;;3.00;;
12194;SDS011;27023;42.680;23.132;2022-09-01T08:23:40;2.80;;;2.70;;
12194;SDS011;27023;42.680;23.132;2022-09-01T08:26:09;3.38;;;3.28;;
12194;SDS011;27023;42.680;23.132;2022-09-01T08:28:37;2.63;;;2.53;;
12194;SDS011;27023;42.680;23.132;2022-09-01T08:31:06;3.65;;;3.38;;
12194;SDS011;27023;42.680;23.132;2022-09-01T08:33:34;3.97;;;3.88;;
12194;SDS011;27023;42.680;23.132;2022-09-01T08:36:01;3.47;;;3.28;;
12194;SDS011;27023;42.680;23.132;2022-09-01T08:38:29;4.03;;;3.83;;
12194;SDS011;27023;42.680;23.132;2022-09-01T08:40:56;4.20;;;3.92;;
12194;SDS011;27023;42.680;23.132;2022-09-01T08:43:27;4.97;;;4.28;;
12194;SDS011;27023;42.680;23.132;2022-09-01T08:46:11;3.05;;;2.95;;
12194;SDS011;27023;42.680;23.132;2022-09-01T08:48:42;3.10;;;3.00;;
12194;SDS011;27023;42.680;23.132;2022-09-01T08:51:14;4.10;;;3.90;;
12194;SDS011;27023;42.680;23.132;2022-09-01T08:53:58;3.63;;;3.53;;
12194;SDS011;27023;42.680;23.132;2022-09-01T08:56:29;2.70;;;2.70;;
12194;SDS011;27023;42.680;23.132;2022-09-01T08:59:00;2.55;;;2.50;;
12194;SDS011;27023;42.680;23.132;2022-09-01T09:01:30;2.22;;;2.17;;
12194;SDS011;27023;42.680;23.132;2022-09-01T09:04:14;3.50;;;3.30;;
12194;SDS011;27023;42.680;23.132;2022-09-01T09:06:53;3.28;;;3.13;;
12194;SDS011;27023;42.680;23.132;2022-09-01T09:09:27;2.08;;;2.08;;
12194;SDS011;27023;42.680;23.132;2022-09-01T09:12:03;3.05;;;2.90;;
12194;SDS011;27023;42.680;23.132;2022-09-01T09:14:53;3.22;;;3.13;;
12194;SDS011;27023;42.680;23.132;2022-09-01T09:17:31;2.97;;;2.92;;
12194;SDS011;27023;42.680;23.132;2022-09-01T09:20:02;3.10;;;3.10;;
12194;SDS011;27023;42.680;23.132;2022-09-01T09:22:30;2.85;;;2.72;;
12194;SDS011;27023;42.680;23.132;2022-09-01T09:24:58;3.70;;;3.53;;
12194;SDS011;27023;42.680;23.132;2022-09-01T09:27:30;2.28;;;2.22;;
12194;SDS011;27023;42.680;23.132;2022-09-01T09:29:58;5.18;;;3.78;;
12194;SDS011;27023;42.680;23.132;2022-09-01T09:35:19;4.68;;;3.97;;
12194;SDS011;27023;42.680;23.132;2022-09-01T09:37:51;3.53;;;3.42;;
12194;SDS011;27023;42.680;23.132;2022-09-01T09:40:18;2.72;;;2.63;;
12194;SDS011;27023;42.680;23.132;2022-09-01T09:43:03;3.47;;;3.25;;
12194;SDS011;27023;42.680;23.132;2022-09-01T09:45:33;2.67;;;2.58;;
12194;SDS011;27023;42.680;23.132;2022-09-01T09:48:05;3.67;;;3.47;;
12194;SDS011;27023;42.680;23.132;2022-09-01T09:50:34;3.20;;;3.10;;
12194;SDS011;27023;42.680;23.132;2022-09-01T09:53:11;3.42;;;3.33;;
12194;SDS011;27023;42.680;23.132;2022-09-01T09:55:49;3.85;;;3.50;;
12194;SDS011;27023;42.680;23.132;2022-09-01T09:58:20;3.15;;;3.05;;
12194;SDS011;27023;42.680;23.132;2022-09-01T10:00:57;2.42;;;2.42;;
12194;SDS011;27023;42.680;23.132;2022-09-01T10:03:35;3.55;;;3.35;;
12194;SDS011;27023;42.680;23.132;2022-09-01T10:06:11;3.58;;;3.50;;
12194;SDS011;27023;42.680;23.132;2022-09-01T10:08:41;3.30;;;3.20;;
12194;SDS011;27023;42.680;23.132;2022-09-01T10:11:11;2.95;;;2.65;;
12194;SDS011;27023;42.680;23.132;2022-09-01T10:13:51;3.08;;;3.08;;
12194;SDS011;27023;42.680;23.132;2022-09-01T10:16:21;3.75;;;3.65;;
12194;SDS011;27023;42.680;23.132;2022-09-01T10:18:53;3.13;;;3.03;;
12194;SDS011;27023;42.680;23.132;2022-09-01T10:21:26;3.45;;;3.25;;
12194;SDS011;27023;42.680;23.132;2022-09-01T10:23:57;3.53;;;3.33;;
12194;SDS011;27023;42.680;23.132;2022-09-01T10:26:26;3.10;;;3.00;;
12194;SDS011;27023;42.680;23.132;2022-09-01T10:28:58;1.98;;;1.98;;
12194;SDS011;27023;42.680;23.132;2022-09-01T10:31:31;3.08;;;2.97;;
12194;SDS011;27023;42.680;23.132;2022-09-01T10:34:01;3.38;;;3.28;;
12194;SDS011;27023;42.680;23.132;2022-09-01T10:36:30;4.00;;;3.90;;
12194;SDS011;27023;42.680;23.132;2022-09-01T10:38:58;3.83;;;3.47;;
12194;SDS011;27023;42.680;23.132;2022-09-01T10:41:48;2.75;;;2.65;;
12194;SDS011;27023;42.680;23.132;2022-09-01T10:44:18;4.10;;;3.85;;
12194;SDS011;27023;42.680;23.132;2022-09-01T10:46:47;3.83;;;3.72;;
12194;SDS011;27023;42.680;23.132;2022-09-01T10:55:45;2.30;;;2.20;;
12194;SDS011;27023;42.680;23.132;2022-09-01T10:58:45;2.50;;;2.42;;
12194;SDS011;27023;42.680;23.132;2022-09-01T11:07:29;3.90;;;3.67;;
12194;SDS011;27023;42.680;23.132;2022-09-01T11:10:14;3.17;;;3.08;;
12194;SDS011;27023;42.680;23.132;2022-09-01T11:13:01;3.03;;;3.00;;
12194;SDS011;27023;42.680;23.132;2022-09-01T11:15:41;3.45;;;3.38;;
12194;SDS011;27023;42.680;23.132;2022-09-01T11:18:10;2.65;;;2.47;;
12194;SDS011;27023;42.680;23.132;2022-09-01T11:20:40;2.97;;;2.90;;
12194;SDS011;27023;42.680;23.132;2022-09-01T11:23:09;2.15;;;2.13;;
12194;SDS011;27023;42.680;23.132;2022-09-01T11:25:39;2.67;;;2.63;;
12194;SDS011;27023;42.680;23.132;2022-09-01T11:34:03;2.97;;;2.88;;
12194;SDS011;27023;42.680;23.132;2022-09-01T11:36:37;2.58;;;2.47;;
12194;SDS011;27023;42.680;23.132;2022-09-01T11:39:18;1.60;;;1.50;;
12194;SDS011;27023;42.680;23.132;2022-09-01T11:41:55;1.58;;;1.58;;
12194;SDS011;27023;42.680;23.132;2022-09-01T11:44:28;2.63;;;2.63;;
12194;SDS011;27023;42.680;23.132;2022-09-01T11:47:01;2.28;;;2.17;;
12194;SDS011;27023;42.680;23.132;2022-09-01T11:49:30;1.40;;;1.40;;
12194;SDS011;27023;42.680;23.132;2022-09-01T11:51:59;1.17;;;1.15;;
12194;SDS011;27023;42.680;23.132;2022-09-01T11:54:28;1.80;;;1.75;;
12194;SDS011;27023;42.680;23.132;2022-09-01T11:57:15;2.28;;;2.17;;
12194;SDS011;27023;42.680;23.132;2022-09-01T11:59:44;2.10;;;2.00;;
12194;SDS011;27023;42.680;23.132;2022-09-01T12:02:16;1.77;;;1.67;;
12194;SDS011;27023;42.680;23.132;2022-09-01T12:04:43;1.45;;;1.45;;
12194;SDS011;27023;42.680;23.132;2022-09-01T12:07:11;1.48;;;1.38;;
12194;SDS011;27023;42.680;23.132;2022-09-01T12:09:49;1.85;;;1.75;;
12194;SDS011;27023;42.680;23.132;2022-09-01T12:12:27;1.65;;;1.58;;
12194;SDS011;27023;42.680;23.132;2022-09-01T12:14:58;2.00;;;1.90;;
12194;SDS011;27023;42.680;23.132;2022-09-01T12:17:26;1.95;;;1.85;;
12194;SDS011;27023;42.680;23.132;2022-09-01T12:19:53;1.85;;;1.75;;
12194;SDS011;27023;42.680;23.132;2022-09-01T12:22:20;2.00;;;1.90;;
12194;SDS011;27023;42.680;23.132;2022-09-01T12:24:49;1.63;;;1.52;;
12194;SDS011;27023;42.680;23.132;2022-09-01T12:27:17;2.28;;;2.17;;
12194;SDS011;27023;42.680;23.132;2022-09-01T12:29:44;1.98;;;1.88;;
12194;SDS011;27023;42.680;23.132;2022-09-01T12:32:13;2.00;;;1.90;;
12194;SDS011;27023;42.680;23.132;2022-09-01T12:34:42;1.85;;;1.85;;
12194;SDS011;27023;42.680;23.132;2022-09-01T12:37:18;2.08;;;2.03;;
12194;SDS011;27023;42.680;23.132;2022-09-01T12:39:47;2.03;;;2.03;;
12194;SDS011;27023;42.680;23.132;2022-09-01T12:42:23;1.75;;;1.65;;
12194;SDS011;27023;42.680;23.132;2022-09-01T12:44:54;3.17;;;3.08;;
12194;SDS011;27023;42.680;23.132;2022-09-01T12:50:33;2.92;;;2.45;;
12194;SDS011;27023;42.680;23.132;2022-09-01T12:53:18;1.55;;;1.55;;
12194;SDS011;27023;42.680;23.132;2022-09-01T12:55:55;2.55;;;2.45;;
12194;SDS011;27023;42.680;23.132;2022-09-01T12:58:26;2.33;;;2.22;;
12194;SDS011;27023;42.680;23.132;2022-09-01T13:00:57;1.63;;;1.63;;
12194;SDS011;27023;42.680;23.132;2022-09-01T13:03:27;2.50;;;2.25;;
12194;SDS011;27023;42.680;23.132;2022-09-01T13:05:54;1.98;;;1.88;;
12194;SDS011;27023;42.680;23.132;2022-09-01T13:08:24;2.60;;;2.47;;
12194;SDS011;27023;42.680;23.132;2022-09-01T13:10:53;1.90;;;1.80;;
12194;SDS011;27023;42.680;23.132;2022-09-01T13:13:22;2.78;;;2.28;;
12194;SDS011;27023;42.680;23.132;2022-09-01T13:15:51;2.63;;;2.53;;
12194;SDS011;27023;42.680;23.132;2022-09-01T13:18:20;2.72;;;2.63;;
12194;SDS011;27023;42.680;23.132;2022-09-01T13:20:49;2.17;;;2.08;;
12194;SDS011;27023;42.680;23.132;2022-09-01T13:23:18;2.53;;;2.42;;
12194;SDS011;27023;42.680;23.132;2022-09-01T13:25:45;4.18;;;3.85;;
12194;SDS011;27023;42.680;23.132;2022-09-01T13:28:14;1.88;;;1.77;;
12194;SDS011;27023;42.680;23.132;2022-09-01T13:30:42;2.40;;;2.30;;
12194;SDS011;27023;42.680;23.132;2022-09-01T13:33:10;2.65;;;2.55;;
12194;SDS011;27023;42.680;23.132;2022-09-01T13:35:37;2.00;;;1.90;;
12194;SDS011;27023;42.680;23.132;2022-09-01T13:38:06;2.13;;;2.03;;
12194;SDS011;27023;42.680;23.132;2022-09-01T13:40:33;2.22;;;2.13;;
12194;SDS011;27023;42.680;23.132;2022-09-01T13:42:59;1.90;;;1.80;;
12194;SDS011;27023;42.680;23.132;2022-09-01T13:45:28;2.00;;;2.00;;
12194;SDS011;27023;42.680;23.132;2022-09-01T13:47:55;3.10;;;2.92;;
12194;SDS011;27023;42.680;23.132;2022-09-01T13:50:22;1.85;;;1.85;;
12194;SDS011;27023;42.680;23.132;2022-09-01T13:52:50;2.25;;;2.15;;
12194;SDS011;27023;42.680;23.132;2022-09-01T13:55:21;2.85;;;2.75;;
12194;SDS011;27023;42.680;23.132;2022-09-01T13:57:48;1.60;;;1.60;;
12194;SDS011;27023;42.680;23.132;2022-09-01T14:00:17;5.25;;;2.72;;
12194;SDS011;27023;42.680;23.132;2022-09-01T14:02:47;2.05;;;2.05;;
12194;SDS011;27023;42.680;23.132;2022-09-01T14:05:17;2.80;;;2.72;;
12194;SDS011;27023;42.680;23.132;2022-09-01T14:07:45;2.55;;;2.55;;
12194;SDS011;27023;42.680;23.132;2022-09-01T14:10:13;2.75;;;2.67;;
12194;SDS011;27023;42.680;23.132;2022-09-01T14:12:41;3.35;;;3.20;;
12194;SDS011;27023;42.680;23.132;2022-09-01T14:15:10;1.75;;;1.73;;
12194;SDS011;27023;42.680;23.132;2022-09-01T14:17:39;2.78;;;2.67;;
12194;SDS011;27023;42.680;23.132;2022-09-01T14:20:07;3.28;;;3.15;;
12194;SDS011;27023;42.680;23.132;2022-09-01T14:22:36;2.53;;;2.33;;
12194;SDS011;27023;42.680;23.132;2022-09-01T14:25:05;4.45;;;4.05;;
12194;SDS011;27023;42.680;23.132;2022-09-01T14:27:32;2.97;;;2.83;;
12194;SDS011;27023;42.680;23.132;2022-09-01T14:30:00;3.45;;;3.22;;
12194;SDS011;27023;42.680;23.132;2022-09-01T14:32:27;3.78;;;3.50;;
12194;SDS011;27023;42.680;23.132;2022-09-01T14:34:54;3.13;;;2.83;;
12194;SDS011;27023;42.680;23.132;2022-09-01T14:37:22;2.67;;;2.58;;
12194;SDS011;27023;42.680;23.132;2022-09-01T14:39:50;3.65;;;3.08;;
12194;SDS011;27023;42.680;23.132;2022-09-01T14:42:17;11.73;;;4.07;;
12194;SDS011;27023;42.680;23.132;2022-09-01T14:44:44;2.67;;;2.53;;
12194;SDS011;27023;42.680;23.132;2022-09-01T14:47:12;2.38;;;2.30;;
12194;SDS011;27023;42.680;23.132;2022-09-01T14:49:41;12.30;;;3.22;;
12194;SDS011;27023;42.680;23.132;2022-09-01T14:52:08;2.42;;;2.33;;
12194;SDS011;27023;42.680;23.132;2022-09-01T14:54:39;2.22;;;2.22;;
12194;SDS011;27023;42.680;23.132;2022-09-01T14:57:07;2.47;;;2.38;;
12194;SDS011;27023;42.680;23.132;2022-09-01T14:59:35;2.83;;;2.63;;
12194;SDS011;27023;42.680;23.132;2022-09-01T15:02:02;2.05;;;2.03;;
12194;SDS011;27023;42.680;23.132;2022-09-01T15:04:30;2.53;;;2.40;;
12194;SDS011;27023;42.680;23.132;2022-09-01T15:06:58;2.47;;;2.38;;